METAR ET TAF INFORMATION
METAR FOR ENMH
ADDS - METARS form results

(0600 UTC 16 October 2019)
Data provider http://aviationweather.gov/metar/data/
 
METAR text: ENMH 160550Z 15009KT CAVOK M01/M03 Q1018
Conditions at: ENMH (MEHAMN , NO) observed 0550 UTC 16 October 2019
Temperature: -1.0°C (30°F)
Dewpoint: -3.0°C (27°F) [RH = 86%]
Pressure (altimeter): 30.06 inches Hg (1018.0 mb)
Winds: from the SSE (150 degrees) at 10 MPH (9 knots; 4.6 m/s)
Visibility: 6 or more miles (10+ km)
Ceiling: ceiling and visibility are OK
Clouds: unknown
Weather: no significant weather observed at this time

 AÉROPORT DE AÉROPORT

 INFORMATIONS DE PISTE
Piste 17 Longueur de la piste 2887 ft Largeur de la piste 0 ft
Élévation de la piste 30 ft Seuil de la piste déplacés 0 ft Runway heading 0
Piste 35 Longueur de la piste 2887 ft Largeur de la piste 0 ft
Élévation de la piste 39 ft Seuil de la piste déplacés 0 ft Runway heading 0

 AÉROPORT FRÉQUENCES
Type AFIS Nom Féquence 121.2 MHZ

 SIDA DE NAVIGATION



Powered by Virtual Airlines Manager [v2.6.2]